sensor_id;sensor_type;location;lat;lon;timestamp;P1;durP1;ratioP1;P2;durP2;ratioP2
65558;SDS011;52203;51.998;5.140;2022-11-30T00:00:33;15.07;;;8.32;;
65558;SDS011;52203;51.998;5.140;2022-11-30T00:02:59;15.60;;;9.23;;
65558;SDS011;52203;51.998;5.140;2022-11-30T00:05:25;14.80;;;8.65;;
65558;SDS011;52203;51.998;5.140;2022-11-30T00:07:50;19.23;;;10.25;;
65558;SDS011;52203;51.998;5.140;2022-11-30T00:10:18;14.65;;;8.40;;
65558;SDS011;52203;51.998;5.140;2022-11-30T00:12:45;13.27;;;7.65;;
65558;SDS011;52203;51.998;5.140;2022-11-30T00:15:11;16.08;;;9.00;;
65558;SDS011;52203;51.998;5.140;2022-11-30T00:17:39;16.08;;;10.07;;
65558;SDS011;52203;51.998;5.140;2022-11-30T00:20:07;16.40;;;9.50;;
65558;SDS011;52203;51.998;5.140;2022-11-30T00:22:33;17.77;;;9.27;;
65558;SDS011;52203;51.998;5.140;2022-11-30T00:24:59;13.85;;;8.40;;
65558;SDS011;52203;51.998;5.140;2022-11-30T00:27:27;13.73;;;8.20;;
65558;SDS011;52203;51.998;5.140;2022-11-30T00:29:55;18.08;;;9.90;;
65558;SDS011;52203;51.998;5.140;2022-11-30T00:32:21;17.92;;;9.27;;
65558;SDS011;52203;51.998;5.140;2022-11-30T00:34:47;18.25;;;10.43;;
65558;SDS011;52203;51.998;5.140;2022-11-30T00:37:13;20.10;;;9.38;;
65558;SDS011;52203;51.998;5.140;2022-11-30T00:39:39;17.85;;;9.65;;
65558;SDS011;52203;51.998;5.140;2022-11-30T00:42:04;17.35;;;9.57;;
65558;SDS011;52203;51.998;5.140;2022-11-30T00:44:30;19.00;;;10.38;;
65558;SDS011;52203;51.998;5.140;2022-11-30T00:46:55;15.25;;;8.55;;
65558;SDS011;52203;51.998;5.140;2022-11-30T00:49:21;18.00;;;9.43;;
65558;SDS011;52203;51.998;5.140;2022-11-30T00:51:46;15.57;;;8.65;;
65558;SDS011;52203;51.998;5.140;2022-11-30T00:54:12;17.35;;;9.25;;
65558;SDS011;52203;51.998;5.140;2022-11-30T00:56:37;15.48;;;8.43;;
65558;SDS011;52203;51.998;5.140;2022-11-30T00:59:03;16.75;;;9.50;;
65558;SDS011;52203;51.998;5.140;2022-11-30T01:01:28;16.70;;;10.35;;
65558;SDS011;52203;51.998;5.140;2022-11-30T01:03:55;15.15;;;8.52;;
65558;SDS011;52203;51.998;5.140;2022-11-30T01:06:21;16.52;;;8.15;;
65558;SDS011;52203;51.998;5.140;2022-11-30T01:08:46;15.43;;;8.88;;
65558;SDS011;52203;51.998;5.140;2022-11-30T01:11:25;15.38;;;8.65;;
65558;SDS011;52203;51.998;5.140;2022-11-30T01:13:53;15.30;;;8.90;;
65558;SDS011;52203;51.998;5.140;2022-11-30T01:16:23;16.75;;;9.40;;
65558;SDS011;52203;51.998;5.140;2022-11-30T01:18:50;14.95;;;8.68;;
65558;SDS011;52203;51.998;5.140;2022-11-30T01:21:17;17.55;;;9.82;;
65558;SDS011;52203;51.998;5.140;2022-11-30T01:23:44;18.63;;;8.90;;
65558;SDS011;52203;51.998;5.140;2022-11-30T01:26:10;20.55;;;10.40;;
65558;SDS011;52203;51.998;5.140;2022-11-30T01:28:36;23.27;;;11.20;;
65558;SDS011;52203;51.998;5.140;2022-11-30T01:31:09;21.05;;;10.20;;
65558;SDS011;52203;51.998;5.140;2022-11-30T01:33:37;22.00;;;10.70;;
65558;SDS011;52203;51.998;5.140;2022-11-30T01:38:38;19.25;;;9.15;;
65558;SDS011;52203;51.998;5.140;2022-11-30T01:41:09;18.30;;;9.18;;
65558;SDS011;52203;51.998;5.140;2022-11-30T01:43:37;17.80;;;9.25;;
65558;SDS011;52203;51.998;5.140;2022-11-30T01:46:04;13.65;;;8.07;;
65558;SDS011;52203;51.998;5.140;2022-11-30T01:48:40;15.38;;;8.27;;
65558;SDS011;52203;51.998;5.140;2022-11-30T01:51:05;20.15;;;9.93;;
65558;SDS011;52203;51.998;5.140;2022-11-30T01:53:31;19.02;;;9.70;;
65558;SDS011;52203;51.998;5.140;2022-11-30T01:55:57;14.68;;;8.20;;
65558;SDS011;52203;51.998;5.140;2022-11-30T01:58:23;16.25;;;8.38;;
65558;SDS011;52203;51.998;5.140;2022-11-30T02:00:52;16.35;;;9.25;;
65558;SDS011;52203;51.998;5.140;2022-11-30T02:05:52;17.30;;;9.15;;
65558;SDS011;52203;51.998;5.140;2022-11-30T02:08:18;14.63;;;8.32;;
65558;SDS011;52203;51.998;5.140;2022-11-30T02:10:51;16.02;;;8.77;;
65558;SDS011;52203;51.998;5.140;2022-11-30T02:21:46;16.75;;;8.73;;
65558;SDS011;52203;51.998;5.140;2022-11-30T02:30:06;16.85;;;9.20;;
65558;SDS011;52203;51.998;5.140;2022-11-30T02:32:41;17.83;;;9.27;;
65558;SDS011;52203;51.998;5.140;2022-11-30T02:35:13;18.17;;;9.85;;
65558;SDS011;52203;51.998;5.140;2022-11-30T02:37:43;16.30;;;8.48;;
65558;SDS011;52203;51.998;5.140;2022-11-30T02:40:12;18.63;;;9.52;;
65558;SDS011;52203;51.998;5.140;2022-11-30T02:42:42;14.25;;;8.45;;
65558;SDS011;52203;51.998;5.140;2022-11-30T02:45:08;14.45;;;8.20;;
65558;SDS011;52203;51.998;5.140;2022-11-30T02:50:21;18.70;;;8.68;;
65558;SDS011;52203;51.998;5.140;2022-11-30T02:52:51;16.27;;;8.55;;
65558;SDS011;52203;51.998;5.140;2022-11-30T02:55:18;17.90;;;9.57;;
65558;SDS011;52203;51.998;5.140;2022-11-30T02:57:44;16.55;;;9.05;;
65558;SDS011;52203;51.998;5.140;2022-11-30T03:00:10;18.08;;;9.00;;
65558;SDS011;52203;51.998;5.140;2022-11-30T03:02:37;18.45;;;9.00;;
65558;SDS011;52203;51.998;5.140;2022-11-30T03:05:03;16.70;;;9.45;;
65558;SDS011;52203;51.998;5.140;2022-11-30T03:07:29;16.85;;;8.73;;
65558;SDS011;52203;51.998;5.140;2022-11-30T03:09:54;21.58;;;9.52;;
65558;SDS011;52203;51.998;5.140;2022-11-30T03:12:20;20.35;;;10.10;;
65558;SDS011;52203;51.998;5.140;2022-11-30T03:14:46;15.98;;;8.25;;
65558;SDS011;52203;51.998;5.140;2022-11-30T03:17:11;13.90;;;8.15;;
65558;SDS011;52203;51.998;5.140;2022-11-30T03:19:37;17.13;;;8.45;;
65558;SDS011;52203;51.998;5.140;2022-11-30T03:22:02;14.82;;;8.77;;
65558;SDS011;52203;51.998;5.140;2022-11-30T03:24:28;15.48;;;8.18;;
65558;SDS011;52203;51.998;5.140;2022-11-30T03:26:54;14.77;;;7.97;;
65558;SDS011;52203;51.998;5.140;2022-11-30T03:29:19;16.08;;;8.18;;
65558;SDS011;52203;51.998;5.140;2022-11-30T03:31:45;19.00;;;9.00;;
65558;SDS011;52203;51.998;5.140;2022-11-30T03:34:10;19.88;;;9.43;;
65558;SDS011;52203;51.998;5.140;2022-11-30T03:36:36;13.88;;;7.18;;
65558;SDS011;52203;51.998;5.140;2022-11-30T03:39:02;18.85;;;8.98;;
65558;SDS011;52203;51.998;5.140;2022-11-30T03:41:27;13.23;;;7.57;;
65558;SDS011;52203;51.998;5.140;2022-11-30T03:43:53;18.80;;;9.35;;
65558;SDS011;52203;51.998;5.140;2022-11-30T03:46:19;18.25;;;8.95;;
65558;SDS011;52203;51.998;5.140;2022-11-30T03:48:45;15.50;;;7.80;;
65558;SDS011;52203;51.998;5.140;2022-11-30T03:51:11;16.92;;;8.25;;
65558;SDS011;52203;51.998;5.140;2022-11-30T03:53:37;15.32;;;8.10;;
65558;SDS011;52203;51.998;5.140;2022-11-30T03:56:04;16.35;;;8.27;;
65558;SDS011;52203;51.998;5.140;2022-11-30T03:58:31;19.67;;;10.57;;
65558;SDS011;52203;51.998;5.140;2022-11-30T04:01:07;16.35;;;9.13;;
65558;SDS011;52203;51.998;5.140;2022-11-30T04:03:41;19.40;;;9.52;;
65558;SDS011;52203;51.998;5.140;2022-11-30T04:06:08;17.38;;;9.40;;
65558;SDS011;52203;51.998;5.140;2022-11-30T04:08:35;19.23;;;9.00;;
65558;SDS011;52203;51.998;5.140;2022-11-30T04:11:01;19.23;;;9.90;;
65558;SDS011;52203;51.998;5.140;2022-11-30T04:13:28;17.75;;;9.40;;
65558;SDS011;52203;51.998;5.140;2022-11-30T04:15:54;20.40;;;9.73;;
65558;SDS011;52203;51.998;5.140;2022-11-30T04:18:21;17.63;;;8.05;;
65558;SDS011;52203;51.998;5.140;2022-11-30T04:20:51;18.60;;;8.88;;
65558;SDS011;52203;51.998;5.140;2022-11-30T04:23:18;19.60;;;8.00;;
65558;SDS011;52203;51.998;5.140;2022-11-30T04:25:44;17.05;;;8.18;;
65558;SDS011;52203;51.998;5.140;2022-11-30T04:28:11;19.40;;;8.82;;
65558;SDS011;52203;51.998;5.140;2022-11-30T04:30:38;21.58;;;10.18;;
65558;SDS011;52203;51.998;5.140;2022-11-30T04:33:04;22.70;;;11.30;;
65558;SDS011;52203;51.998;5.140;2022-11-30T04:35:30;21.90;;;10.23;;
65558;SDS011;52203;51.998;5.140;2022-11-30T04:37:56;16.67;;;8.00;;
65558;SDS011;52203;51.998;5.140;2022-11-30T04:40:22;14.93;;;7.65;;
65558;SDS011;52203;51.998;5.140;2022-11-30T04:42:48;23.20;;;9.65;;
65558;SDS011;52203;51.998;5.140;2022-11-30T04:45:14;18.20;;;8.27;;
65558;SDS011;52203;51.998;5.140;2022-11-30T04:47:39;21.45;;;9.88;;
65558;SDS011;52203;51.998;5.140;2022-11-30T04:50:05;17.35;;;8.93;;
65558;SDS011;52203;51.998;5.140;2022-11-30T04:52:32;21.85;;;10.77;;
65558;SDS011;52203;51.998;5.140;2022-11-30T04:54:58;27.25;;;10.40;;
65558;SDS011;52203;51.998;5.140;2022-11-30T04:57:24;23.70;;;10.32;;
65558;SDS011;52203;51.998;5.140;2022-11-30T04:59:50;22.98;;;10.05;;
65558;SDS011;52203;51.998;5.140;2022-11-30T05:02:15;22.02;;;10.35;;
65558;SDS011;52203;51.998;5.140;2022-11-30T05:04:41;24.60;;;10.65;;
65558;SDS011;52203;51.998;5.140;2022-11-30T05:07:07;21.95;;;10.15;;
65558;SDS011;52203;51.998;5.140;2022-11-30T05:09:33;21.23;;;9.98;;
65558;SDS011;52203;51.998;5.140;2022-11-30T05:11:59;18.48;;;9.18;;
65558;SDS011;52203;51.998;5.140;2022-11-30T05:14:24;13.82;;;7.13;;
65558;SDS011;52203;51.998;5.140;2022-11-30T05:16:50;22.27;;;9.32;;
65558;SDS011;52203;51.998;5.140;2022-11-30T05:19:16;21.75;;;10.25;;
65558;SDS011;52203;51.998;5.140;2022-11-30T05:21:42;26.05;;;13.07;;
65558;SDS011;52203;51.998;5.140;2022-11-30T05:24:08;28.35;;;11.23;;
65558;SDS011;52203;51.998;5.140;2022-11-30T05:26:35;26.67;;;11.35;;
65558;SDS011;52203;51.998;5.140;2022-11-30T05:29:02;25.88;;;11.68;;
65558;SDS011;52203;51.998;5.140;2022-11-30T05:31:28;25.50;;;12.07;;
65558;SDS011;52203;51.998;5.140;2022-11-30T05:33:53;31.42;;;13.65;;
65558;SDS011;52203;51.998;5.140;2022-11-30T05:36:19;31.00;;;13.15;;
65558;SDS011;52203;51.998;5.140;2022-11-30T05:38:45;28.33;;;12.52;;
65558;SDS011;52203;51.998;5.140;2022-11-30T05:41:11;28.85;;;12.52;;
65558;SDS011;52203;51.998;5.140;2022-11-30T05:43:37;26.55;;;12.38;;
65558;SDS011;52203;51.998;5.140;2022-11-30T05:46:03;26.58;;;11.80;;
65558;SDS011;52203;51.998;5.140;2022-11-30T05:48:30;20.27;;;10.02;;
65558;SDS011;52203;51.998;5.140;2022-11-30T05:51:03;27.10;;;10.90;;
65558;SDS011;52203;51.998;5.140;2022-11-30T05:53:33;27.05;;;11.52;;
65558;SDS011;52203;51.998;5.140;2022-11-30T05:56:03;26.48;;;11.50;;
65558;SDS011;52203;51.998;5.140;2022-11-30T05:58:33;20.85;;;9.13;;
65558;SDS011;52203;51.998;5.140;2022-11-30T06:00:59;20.98;;;9.45;;
65558;SDS011;52203;51.998;5.140;2022-11-30T06:03:26;18.50;;;8.80;;
65558;SDS011;52203;51.998;5.140;2022-11-30T06:05:53;21.77;;;10.10;;
65558;SDS011;52203;51.998;5.140;2022-11-30T06:08:18;25.20;;;10.65;;
65558;SDS011;52203;51.998;5.140;2022-11-30T06:10:44;23.30;;;10.43;;
65558;SDS011;52203;51.998;5.140;2022-11-30T06:13:10;30.52;;;12.82;;
65558;SDS011;52203;51.998;5.140;2022-11-30T06:15:36;27.20;;;11.27;;
65558;SDS011;52203;51.998;5.140;2022-11-30T06:18:03;26.13;;;11.95;;
65558;SDS011;52203;51.998;5.140;2022-11-30T06:20:30;27.50;;;11.60;;
65558;SDS011;52203;51.998;5.140;2022-11-30T06:22:55;22.48;;;10.20;;
65558;SDS011;52203;51.998;5.140;2022-11-30T06:25:23;26.17;;;11.43;;
65558;SDS011;52203;51.998;5.140;2022-11-30T06:27:49;27.08;;;11.05;;
65558;SDS011;52203;51.998;5.140;2022-11-30T06:30:15;26.63;;;11.82;;
65558;SDS011;52203;51.998;5.140;2022-11-30T06:33:14;27.00;;;11.43;;
65558;SDS011;52203;51.998;5.140;2022-11-30T06:35:33;20.85;;;10.23;;
65558;SDS011;52203;51.998;5.140;2022-11-30T06:37:58;21.67;;;10.02;;
65558;SDS011;52203;51.998;5.140;2022-11-30T06:40:25;23.23;;;10.13;;
65558;SDS011;52203;51.998;5.140;2022-11-30T06:42:52;19.42;;;9.60;;
65558;SDS011;52203;51.998;5.140;2022-11-30T06:45:44;22.55;;;10.27;;
65558;SDS011;52203;51.998;5.140;2022-11-30T06:48:25;19.58;;;9.05;;
65558;SDS011;52203;51.998;5.140;2022-11-30T06:54:25;22.10;;;10.07;;
65558;SDS011;52203;51.998;5.140;2022-11-30T06:57:24;21.77;;;10.20;;
65558;SDS011;52203;51.998;5.140;2022-11-30T07:00:13;20.95;;;9.73;;
65558;SDS011;52203;51.998;5.140;2022-11-30T07:02:47;20.10;;;9.35;;
65558;SDS011;52203;51.998;5.140;2022-11-30T07:05:13;21.25;;;9.48;;
65558;SDS011;52203;51.998;5.140;2022-11-30T07:07:38;22.55;;;9.95;;
65558;SDS011;52203;51.998;5.140;2022-11-30T07:10:16;20.63;;;9.88;;
65558;SDS011;52203;51.998;5.140;2022-11-30T07:12:55;20.77;;;9.30;;
65558;SDS011;52203;51.998;5.140;2022-11-30T07:15:21;25.70;;;10.70;;
65558;SDS011;52203;51.998;5.140;2022-11-30T07:17:46;20.25;;;9.93;;
65558;SDS011;52203;51.998;5.140;2022-11-30T07:20:12;25.23;;;10.70;;
65558;SDS011;52203;51.998;5.140;2022-11-30T07:22:38;23.75;;;10.68;;
65558;SDS011;52203;51.998;5.140;2022-11-30T07:25:12;21.15;;;10.45;;
65558;SDS011;52203;51.998;5.140;2022-11-30T07:28:00;18.73;;;8.60;;
65558;SDS011;52203;51.998;5.140;2022-11-30T07:30:31;23.33;;;10.00;;
65558;SDS011;52203;51.998;5.140;2022-11-30T07:32:56;23.63;;;10.73;;
65558;SDS011;52203;51.998;5.140;2022-11-30T07:35:28;22.50;;;10.40;;
65558;SDS011;52203;51.998;5.140;2022-11-30T07:37:59;17.42;;;8.18;;
65558;SDS011;52203;51.998;5.140;2022-11-30T07:40:28;22.23;;;10.27;;
65558;SDS011;52203;51.998;5.140;2022-11-30T07:42:56;21.67;;;9.20;;
65558;SDS011;52203;51.998;5.140;2022-11-30T07:45:25;23.67;;;10.75;;
65558;SDS011;52203;51.998;5.140;2022-11-30T07:47:50;20.50;;;9.98;;
65558;SDS011;52203;51.998;5.140;2022-11-30T07:50:16;19.95;;;8.93;;
65558;SDS011;52203;51.998;5.140;2022-11-30T07:52:50;23.65;;;10.60;;
65558;SDS011;52203;51.998;5.140;2022-11-30T07:55:22;22.80;;;10.07;;
65558;SDS011;52203;51.998;5.140;2022-11-30T07:57:48;26.02;;;9.73;;
65558;SDS011;52203;51.998;5.140;2022-11-30T08:00:13;19.85;;;8.13;;
65558;SDS011;52203;51.998;5.140;2022-11-30T08:02:39;17.77;;;9.23;;
65558;SDS011;52203;51.998;5.140;2022-11-30T08:05:05;23.63;;;11.15;;
65558;SDS011;52203;51.998;5.140;2022-11-30T08:07:31;23.58;;;10.82;;
65558;SDS011;52203;51.998;5.140;2022-11-30T08:09:57;25.73;;;11.18;;
65558;SDS011;52203;51.998;5.140;2022-11-30T08:12:22;16.92;;;8.15;;
65558;SDS011;52203;51.998;5.140;2022-11-30T08:14:48;23.17;;;11.65;;
65558;SDS011;52203;51.998;5.140;2022-11-30T08:17:13;22.40;;;11.00;;
65558;SDS011;52203;51.998;5.140;2022-11-30T08:19:39;22.15;;;10.18;;
65558;SDS011;52203;51.998;5.140;2022-11-30T08:22:04;22.80;;;10.60;;
65558;SDS011;52203;51.998;5.140;2022-11-30T08:24:30;18.63;;;8.68;;
65558;SDS011;52203;51.998;5.140;2022-11-30T08:26:55;20.58;;;10.15;;
65558;SDS011;52203;51.998;5.140;2022-11-30T08:29:21;21.27;;;10.10;;
65558;SDS011;52203;51.998;5.140;2022-11-30T08:31:46;23.92;;;11.10;;
65558;SDS011;52203;51.998;5.140;2022-11-30T08:34:12;22.52;;;10.38;;
65558;SDS011;52203;51.998;5.140;2022-11-30T08:36:38;20.42;;;9.77;;
65558;SDS011;52203;51.998;5.140;2022-11-30T08:39:05;21.30;;;10.50;;
65558;SDS011;52203;51.998;5.140;2022-11-30T08:41:32;24.60;;;11.82;;
65558;SDS011;52203;51.998;5.140;2022-11-30T08:43:59;31.73;;;13.25;;
65558;SDS011;52203;51.998;5.140;2022-11-30T08:46:25;25.88;;;11.38;;
65558;SDS011;52203;51.998;5.140;2022-11-30T08:48:51;25.45;;;10.75;;
65558;SDS011;52203;51.998;5.140;2022-11-30T08:51:17;24.55;;;10.38;;
65558;SDS011;52203;51.998;5.140;2022-11-30T08:53:46;25.58;;;11.45;;
65558;SDS011;52203;51.998;5.140;2022-11-30T08:56:13;26.45;;;11.48;;
65558;SDS011;52203;51.998;5.140;2022-11-30T08:58:40;22.73;;;10.93;;
65558;SDS011;52203;51.998;5.140;2022-11-30T09:01:11;21.17;;;9.65;;
65558;SDS011;52203;51.998;5.140;2022-11-30T09:03:44;29.10;;;12.70;;
65558;SDS011;52203;51.998;5.140;2022-11-30T09:06:12;25.80;;;11.65;;
65558;SDS011;52203;51.998;5.140;2022-11-30T09:08:42;28.10;;;13.00;;
65558;SDS011;52203;51.998;5.140;2022-11-30T09:13:40;20.38;;;10.02;;
65558;SDS011;52203;51.998;5.140;2022-11-30T09:19:28;23.25;;;10.48;;
65558;SDS011;52203;51.998;5.140;2022-11-30T09:21:55;23.88;;;10.10;;
65558;SDS011;52203;51.998;5.140;2022-11-30T09:24:20;24.15;;;11.05;;
65558;SDS011;52203;51.998;5.140;2022-11-30T09:26:46;25.10;;;11.88;;
65558;SDS011;52203;51.998;5.140;2022-11-30T09:29:11;25.10;;;10.80;;
65558;SDS011;52203;51.998;5.140;2022-11-30T09:31:37;29.45;;;12.82;;
65558;SDS011;52203;51.998;5.140;2022-11-30T09:34:02;26.75;;;12.63;;
65558;SDS011;52203;51.998;5.140;2022-11-30T09:36:28;30.33;;;13.45;;
65558;SDS011;52203;51.998;5.140;2022-11-30T09:38:55;25.33;;;12.52;;
65558;SDS011;52203;51.998;5.140;2022-11-30T09:46:28;28.80;;;14.05;;
65558;SDS011;52203;51.998;5.140;2022-11-30T09:49:01;28.55;;;13.63;;
65558;SDS011;52203;51.998;5.140;2022-11-30T09:51:30;27.33;;;11.77;;
65558;SDS011;52203;51.998;5.140;2022-11-30T09:54:02;26.17;;;11.35;;
65558;SDS011;52203;51.998;5.140;2022-11-30T09:56:34;26.58;;;12.63;;
65558;SDS011;52203;51.998;5.140;2022-11-30T09:59:24;26.23;;;11.88;;
65558;SDS011;52203;51.998;5.140;2022-11-30T10:01:54;28.60;;;12.95;;
65558;SDS011;52203;51.998;5.140;2022-11-30T10:04:23;30.73;;;13.65;;
65558;SDS011;52203;51.998;5.140;2022-11-30T10:07:08;30.60;;;13.48;;
65558;SDS011;52203;51.998;5.140;2022-11-30T10:09:59;34.83;;;14.75;;
65558;SDS011;52203;51.998;5.140;2022-11-30T10:12:39;32.75;;;14.02;;
65558;SDS011;52203;51.998;5.140;2022-11-30T10:18:22;34.58;;;15.30;;
65558;SDS011;52203;51.998;5.140;2022-11-30T10:26:53;32.78;;;15.07;;
65558;SDS011;52203;51.998;5.140;2022-11-30T10:29:30;33.15;;;14.13;;
65558;SDS011;52203;51.998;5.140;2022-11-30T10:32:09;35.17;;;15.10;;
65558;SDS011;52203;51.998;5.140;2022-11-30T10:34:41;35.97;;;14.60;;
65558;SDS011;52203;51.998;5.140;2022-11-30T10:37:11;37.58;;;17.17;;
65558;SDS011;52203;51.998;5.140;2022-11-30T10:42:21;32.17;;;14.20;;
65558;SDS011;52203;51.998;5.140;2022-11-30T10:44:59;33.13;;;14.00;;
65558;SDS011;52203;51.998;5.140;2022-11-30T10:47:29;35.35;;;15.32;;
65558;SDS011;52203;51.998;5.140;2022-11-30T10:50:00;31.05;;;14.32;;
65558;SDS011;52203;51.998;5.140;2022-11-30T10:52:29;37.30;;;17.25;;
65558;SDS011;52203;51.998;5.140;2022-11-30T10:54:58;35.90;;;15.70;;
65558;SDS011;52203;51.998;5.140;2022-11-30T10:57:29;29.88;;;14.18;;
65558;SDS011;52203;51.998;5.140;2022-11-30T10:59:56;35.17;;;15.50;;
65558;SDS011;52203;51.998;5.140;2022-11-30T11:02:40;37.13;;;16.08;;
65558;SDS011;52203;51.998;5.140;2022-11-30T11:05:14;33.80;;;15.13;;
65558;SDS011;52203;51.998;5.140;2022-11-30T11:07:59;33.83;;;14.90;;
65558;SDS011;52203;51.998;5.140;2022-11-30T11:12:57;30.15;;;13.95;;
65558;SDS011;52203;51.998;5.140;2022-11-30T11:15:27;29.10;;;13.25;;
65558;SDS011;52203;51.998;5.140;2022-11-30T11:20:50;34.08;;;16.05;;
65558;SDS011;52203;51.998;5.140;2022-11-30T11:23:32;33.90;;;16.00;;
65558;SDS011;52203;51.998;5.140;2022-11-30T11:26:00;33.38;;;14.02;;
65558;SDS011;52203;51.998;5.140;2022-11-30T11:28:26;32.33;;;14.30;;
65558;SDS011;52203;51.998;5.140;2022-11-30T11:30:52;29.42;;;13.55;;
65558;SDS011;52203;51.998;5.140;2022-11-30T11:33:21;30.20;;;13.52;;
65558;SDS011;52203;51.998;5.140;2022-11-30T11:35:49;33.35;;;14.52;;
65558;SDS011;52203;51.998;5.140;2022-11-30T11:38:26;28.73;;;12.70;;
65558;SDS011;52203;51.998;5.140;2022-11-30T11:41:06;30.52;;;12.52;;
65558;SDS011;52203;51.998;5.140;2022-11-30T11:43:40;31.92;;;14.13;;
65558;SDS011;52203;51.998;5.140;2022-11-30T11:46:22;35.63;;;14.60;;
65558;SDS011;52203;51.998;5.140;2022-11-30T11:48:56;27.30;;;12.82;;
65558;SDS011;52203;51.998;5.140;2022-11-30T11:51:36;33.40;;;14.73;;
65558;SDS011;52203;51.998;5.140;2022-11-30T11:56:53;26.42;;;11.20;;
65558;SDS011;52203;51.998;5.140;2022-11-30T11:59:21;28.65;;;12.88;;
65558;SDS011;52203;51.998;5.140;2022-11-30T12:05:10;27.75;;;12.38;;
65558;SDS011;52203;51.998;5.140;2022-11-30T12:08:21;31.48;;;12.35;;
65558;SDS011;52203;51.998;5.140;2022-11-30T12:11:00;27.88;;;12.30;;
65558;SDS011;52203;51.998;5.140;2022-11-30T12:13:32;30.40;;;13.77;;
65558;SDS011;52203;51.998;5.140;2022-11-30T12:22:05;31.63;;;14.83;;
65558;SDS011;52203;51.998;5.140;2022-11-30T12:29:38;29.67;;;12.10;;
65558;SDS011;52203;51.998;5.140;2022-11-30T12:58:17;32.58;;;14.55;;
65558;SDS011;52203;51.998;5.140;2022-11-30T13:00:54;32.40;;;13.48;;
65558;SDS011;52203;51.998;5.140;2022-11-30T13:06:30;33.35;;;11.52;;
65558;SDS011;52203;51.998;5.140;2022-11-30T13:09:09;27.08;;;11.13;;
65558;SDS011;52203;51.998;5.140;2022-11-30T13:11:39;24.27;;;11.38;;
65558;SDS011;52203;51.998;5.140;2022-11-30T13:14:14;29.52;;;12.68;;
65558;SDS011;52203;51.998;5.140;2022-11-30T13:16:44;29.75;;;12.68;;
65558;SDS011;52203;51.998;5.140;2022-11-30T13:21:56;32.22;;;14.15;;
65558;SDS011;52203;51.998;5.140;2022-11-30T13:24:36;24.77;;;10.27;;
65558;SDS011;52203;51.998;5.140;2022-11-30T13:27:08;28.40;;;12.27;;
65558;SDS011;52203;51.998;5.140;2022-11-30T13:32:53;28.15;;;12.63;;
65558;SDS011;52203;51.998;5.140;2022-11-30T13:38:00;26.27;;;11.13;;
65558;SDS011;52203;51.998;5.140;2022-11-30T13:40:26;29.08;;;11.88;;
65558;SDS011;52203;51.998;5.140;2022-11-30T13:42:53;31.42;;;12.43;;
65558;SDS011;52203;51.998;5.140;2022-11-30T13:45:33;29.70;;;11.98;;
65558;SDS011;52203;51.998;5.140;2022-11-30T13:48:15;28.35;;;12.23;;
65558;SDS011;52203;51.998;5.140;2022-11-30T13:50:45;26.63;;;11.43;;
65558;SDS011;52203;51.998;5.140;2022-11-30T13:58:20;26.92;;;12.45;;
65558;SDS011;52203;51.998;5.140;2022-11-30T14:00:58;27.42;;;11.82;;
65558;SDS011;52203;51.998;5.140;2022-11-30T14:03:44;32.22;;;13.32;;
65558;SDS011;52203;51.998;5.140;2022-11-30T14:06:50;26.88;;;10.63;;
65558;SDS011;52203;51.998;5.140;2022-11-30T14:14:57;32.38;;;13.18;;
65558;SDS011;52203;51.998;5.140;2022-11-30T14:17:32;33.30;;;15.10;;
65558;SDS011;52203;51.998;5.140;2022-11-30T14:20:13;31.95;;;14.32;;
65558;SDS011;52203;51.998;5.140;2022-11-30T14:22:41;31.23;;;13.65;;
65558;SDS011;52203;51.998;5.140;2022-11-30T14:25:11;35.33;;;13.93;;
65558;SDS011;52203;51.998;5.140;2022-11-30T14:27:40;37.53;;;14.82;;
65558;SDS011;52203;51.998;5.140;2022-11-30T14:30:41;35.10;;;13.82;;
65558;SDS011;52203;51.998;5.140;2022-11-30T14:33:04;33.83;;;14.93;;
65558;SDS011;52203;51.998;5.140;2022-11-30T14:35:36;33.50;;;14.68;;
65558;SDS011;52203;51.998;5.140;2022-11-30T14:38:13;36.17;;;15.60;;
65558;SDS011;52203;51.998;5.140;2022-11-30T14:40:48;36.05;;;15.50;;
65558;SDS011;52203;51.998;5.140;2022-11-30T14:43:15;32.50;;;14.13;;
65558;SDS011;52203;51.998;5.140;2022-11-30T14:45:41;33.35;;;13.63;;
65558;SDS011;52203;51.998;5.140;2022-11-30T14:48:14;30.15;;;14.23;;
65558;SDS011;52203;51.998;5.140;2022-11-30T14:50:54;34.10;;;15.05;;
65558;SDS011;52203;51.998;5.140;2022-11-30T15:01:46;33.22;;;14.07;;
65558;SDS011;52203;51.998;5.140;2022-11-30T15:04:12;33.05;;;14.02;;
65558;SDS011;52203;51.998;5.140;2022-11-30T15:06:41;33.80;;;14.02;;
65558;SDS011;52203;51.998;5.140;2022-11-30T15:15:53;31.70;;;13.45;;
65558;SDS011;52203;51.998;5.140;2022-11-30T15:26:03;30.95;;;12.90;;
65558;SDS011;52203;51.998;5.140;2022-11-30T22:17:04;40.63;;;15.80;;
65558;SDS011;52203;51.998;5.140;2022-11-30T22:36:16;41.88;;;16.35;;
65558;SDS011;52203;51.998;5.140;2022-11-30T22:39:31;37.78;;;15.05;;
65558;SDS011;52203;51.998;5.140;2022-11-30T22:45:10;37.95;;;16.00;;
65558;SDS011;52203;51.998;5.140;2022-11-30T22:48:24;45.10;;;16.15;;
65558;SDS011;52203;51.998;5.140;2022-11-30T22:51:47;45.22;;;16.85;;
65558;SDS011;52203;51.998;5.140;2022-11-30T22:58:07;41.80;;;16.42;;
65558;SDS011;52203;51.998;5.140;2022-11-30T23:03:37;37.03;;;14.77;;
65558;SDS011;52203;51.998;5.140;2022-11-30T23:13:16;36.42;;;15.07;;
65558;SDS011;52203;51.998;5.140;2022-11-30T23:16:29;39.13;;;15.13;;
65558;SDS011;52203;51.998;5.140;2022-11-30T23:18:55;37.78;;;13.63;;
65558;SDS011;52203;51.998;5.140;2022-11-30T23:28:19;37.88;;;14.65;;
65558;SDS011;52203;51.998;5.140;2022-11-30T23:34:51;37.13;;;13.98;;
65558;SDS011;52203;51.998;5.140;2022-11-30T23:38:01;36.95;;;15.07;;
65558;SDS011;52203;51.998;5.140;2022-11-30T23:53:38;44.30;;;15.25;;
65558;SDS011;52203;51.998;5.140;2022-11-30T23:56:26;36.90;;;14.40;;
